sensor_id;sensor_type;location;lat;lon;timestamp;P1;durP1;ratioP1;P2;durP2;ratioP2
211;SDS011;16228;48.800;9.002;2023-02-28T00:01:12;5.40;;;3.97;;
211;SDS011;16228;48.800;9.002;2023-02-28T00:03:39;3.80;;;3.20;;
211;SDS011;16228;48.800;9.002;2023-02-28T00:06:07;5.80;;;5.23;;
211;SDS011;16228;48.800;9.002;2023-02-28T00:08:43;4.97;;;3.70;;
211;SDS011;16228;48.800;9.002;2023-02-28T00:14:35;3.53;;;3.20;;
211;SDS011;16228;48.800;9.002;2023-02-28T00:17:02;4.10;;;3.70;;
211;SDS011;16228;48.800;9.002;2023-02-28T00:19:29;3.93;;;3.43;;
211;SDS011;16228;48.800;9.002;2023-02-28T00:21:57;3.83;;;3.43;;
211;SDS011;16228;48.800;9.002;2023-02-28T00:24:24;6.53;;;3.80;;
211;SDS011;16228;48.800;9.002;2023-02-28T00:26:51;4.37;;;3.97;;
211;SDS011;16228;48.800;9.002;2023-02-28T00:29:19;4.23;;;3.33;;
211;SDS011;16228;48.800;9.002;2023-02-28T00:31:47;4.87;;;3.17;;
211;SDS011;16228;48.800;9.002;2023-02-28T00:34:14;4.63;;;3.20;;
211;SDS011;16228;48.800;9.002;2023-02-28T00:36:41;4.60;;;3.20;;
211;SDS011;16228;48.800;9.002;2023-02-28T00:39:10;5.47;;;4.10;;
211;SDS011;16228;48.800;9.002;2023-02-28T00:41:37;5.37;;;3.93;;
211;SDS011;16228;48.800;9.002;2023-02-28T00:44:05;5.67;;;4.23;;
211;SDS011;16228;48.800;9.002;2023-02-28T00:46:33;4.60;;;4.20;;
211;SDS011;16228;48.800;9.002;2023-02-28T00:49:00;6.83;;;4.77;;
211;SDS011;16228;48.800;9.002;2023-02-28T00:51:28;5.23;;;3.87;;
211;SDS011;16228;48.800;9.002;2023-02-28T00:53:55;5.37;;;4.03;;
211;SDS011;16228;48.800;9.002;2023-02-28T00:56:22;5.30;;;4.47;;
211;SDS011;16228;48.800;9.002;2023-02-28T00:58:49;8.33;;;4.17;;
211;SDS011;16228;48.800;9.002;2023-02-28T01:01:16;6.63;;;5.87;;
211;SDS011;16228;48.800;9.002;2023-02-28T01:03:45;5.47;;;4.93;;
211;SDS011;16228;48.800;9.002;2023-02-28T01:06:12;6.97;;;4.50;;
211;SDS011;16228;48.800;9.002;2023-02-28T01:08:39;5.67;;;4.50;;
211;SDS011;16228;48.800;9.002;2023-02-28T01:11:07;5.50;;;4.43;;
211;SDS011;16228;48.800;9.002;2023-02-28T01:13:35;6.50;;;4.37;;
211;SDS011;16228;48.800;9.002;2023-02-28T01:16:02;8.43;;;4.80;;
211;SDS011;16228;48.800;9.002;2023-02-28T01:18:30;5.33;;;4.83;;
211;SDS011;16228;48.800;9.002;2023-02-28T01:20:58;5.27;;;4.77;;
211;SDS011;16228;48.800;9.002;2023-02-28T01:23:30;5.03;;;4.53;;
211;SDS011;16228;48.800;9.002;2023-02-28T01:26:03;6.73;;;4.70;;
211;SDS011;16228;48.800;9.002;2023-02-28T01:28:31;5.47;;;4.97;;
211;SDS011;16228;48.800;9.002;2023-02-28T01:30:58;5.40;;;4.87;;
211;SDS011;16228;48.800;9.002;2023-02-28T01:33:26;5.30;;;4.80;;
211;SDS011;16228;48.800;9.002;2023-02-28T01:35:58;5.27;;;4.40;;
211;SDS011;16228;48.800;9.002;2023-02-28T01:38:26;5.13;;;4.73;;
211;SDS011;16228;48.800;9.002;2023-02-28T01:40:53;7.50;;;4.93;;
211;SDS011;16228;48.800;9.002;2023-02-28T01:43:22;5.97;;;5.47;;
211;SDS011;16228;48.800;9.002;2023-02-28T01:45:51;8.10;;;6.13;;
211;SDS011;16228;48.800;9.002;2023-02-28T01:48:18;5.80;;;5.30;;
211;SDS011;16228;48.800;9.002;2023-02-28T01:50:48;6.83;;;6.23;;
211;SDS011;16228;48.800;9.002;2023-02-28T01:53:18;5.57;;;5.07;;
211;SDS011;16228;48.800;9.002;2023-02-28T01:55:49;5.57;;;5.07;;
211;SDS011;16228;48.800;9.002;2023-02-28T01:58:19;5.80;;;5.20;;
211;SDS011;16228;48.800;9.002;2023-02-28T02:00:46;7.00;;;6.33;;
211;SDS011;16228;48.800;9.002;2023-02-28T02:03:14;7.73;;;6.20;;
211;SDS011;16228;48.800;9.002;2023-02-28T02:05:44;6.57;;;5.80;;
211;SDS011;16228;48.800;9.002;2023-02-28T02:08:13;8.80;;;6.57;;
211;SDS011;16228;48.800;9.002;2023-02-28T02:10:45;6.73;;;6.23;;
211;SDS011;16228;48.800;9.002;2023-02-28T02:13:19;8.90;;;6.17;;
211;SDS011;16228;48.800;9.002;2023-02-28T02:16:11;6.67;;;5.43;;
211;SDS011;16228;48.800;9.002;2023-02-28T02:18:48;9.10;;;8.40;;
211;SDS011;16228;48.800;9.002;2023-02-28T02:21:40;6.57;;;5.87;;
211;SDS011;16228;48.800;9.002;2023-02-28T02:27:22;6.97;;;6.30;;
211;SDS011;16228;48.800;9.002;2023-02-28T02:33:02;6.80;;;6.27;;
211;SDS011;16228;48.800;9.002;2023-02-28T02:35:41;6.97;;;6.23;;
211;SDS011;16228;48.800;9.002;2023-02-28T02:38:17;6.73;;;5.77;;
211;SDS011;16228;48.800;9.002;2023-02-28T02:40:53;13.03;;;11.50;;
211;SDS011;16228;48.800;9.002;2023-02-28T02:43:28;12.13;;;8.90;;
211;SDS011;16228;48.800;9.002;2023-02-28T02:45:59;12.13;;;10.40;;
211;SDS011;16228;48.800;9.002;2023-02-28T02:48:32;8.07;;;7.37;;
211;SDS011;16228;48.800;9.002;2023-02-28T02:51:04;7.67;;;6.87;;
211;SDS011;16228;48.800;9.002;2023-02-28T02:53:38;6.43;;;5.80;;
211;SDS011;16228;48.800;9.002;2023-02-28T02:56:10;7.10;;;6.40;;
211;SDS011;16228;48.800;9.002;2023-02-28T02:58:41;7.43;;;6.77;;
211;SDS011;16228;48.800;9.002;2023-02-28T03:01:10;7.97;;;7.37;;
211;SDS011;16228;48.800;9.002;2023-02-28T03:03:42;7.47;;;6.77;;
211;SDS011;16228;48.800;9.002;2023-02-28T03:06:13;6.63;;;6.03;;
211;SDS011;16228;48.800;9.002;2023-02-28T03:08:41;7.33;;;6.83;;
211;SDS011;16228;48.800;9.002;2023-02-28T03:11:12;7.13;;;6.63;;
211;SDS011;16228;48.800;9.002;2023-02-28T03:16:36;7.87;;;6.70;;
211;SDS011;16228;48.800;9.002;2023-02-28T03:19:29;7.90;;;7.10;;
211;SDS011;16228;48.800;9.002;2023-02-28T03:22:07;6.83;;;6.33;;
211;SDS011;16228;48.800;9.002;2023-02-28T03:24:43;6.57;;;5.70;;
211;SDS011;16228;48.800;9.002;2023-02-28T03:27:16;7.73;;;6.20;;
211;SDS011;16228;48.800;9.002;2023-02-28T03:29:50;7.33;;;6.73;;
211;SDS011;16228;48.800;9.002;2023-02-28T03:32:23;6.43;;;5.90;;
211;SDS011;16228;48.800;9.002;2023-02-28T03:34:55;8.00;;;7.30;;
211;SDS011;16228;48.800;9.002;2023-02-28T03:37:30;6.87;;;6.20;;
211;SDS011;16228;48.800;9.002;2023-02-28T03:40:01;6.93;;;6.33;;
211;SDS011;16228;48.800;9.002;2023-02-28T03:42:36;6.17;;;5.57;;
211;SDS011;16228;48.800;9.002;2023-02-28T03:45:09;8.17;;;5.93;;
211;SDS011;16228;48.800;9.002;2023-02-28T03:47:40;8.07;;;7.27;;
211;SDS011;16228;48.800;9.002;2023-02-28T03:50:12;7.53;;;6.77;;
211;SDS011;16228;48.800;9.002;2023-02-28T03:52:46;6.70;;;6.10;;
211;SDS011;16228;48.800;9.002;2023-02-28T03:55:17;7.67;;;6.37;;
211;SDS011;16228;48.800;9.002;2023-02-28T03:57:49;7.20;;;6.50;;
211;SDS011;16228;48.800;9.002;2023-02-28T04:00:25;6.37;;;5.83;;
211;SDS011;16228;48.800;9.002;2023-02-28T04:02:54;6.53;;;5.93;;
211;SDS011;16228;48.800;9.002;2023-02-28T04:05:22;7.47;;;6.77;;
211;SDS011;16228;48.800;9.002;2023-02-28T04:07:51;8.83;;;7.63;;
211;SDS011;16228;48.800;9.002;2023-02-28T04:10:19;7.27;;;6.70;;
211;SDS011;16228;48.800;9.002;2023-02-28T04:12:46;6.80;;;6.30;;
211;SDS011;16228;48.800;9.002;2023-02-28T04:15:14;7.47;;;6.70;;
211;SDS011;16228;48.800;9.002;2023-02-28T04:17:41;7.97;;;7.37;;
211;SDS011;16228;48.800;9.002;2023-02-28T04:20:09;8.23;;;6.73;;
211;SDS011;16228;48.800;9.002;2023-02-28T04:22:37;6.87;;;6.17;;
211;SDS011;16228;48.800;9.002;2023-02-28T04:25:06;8.37;;;7.60;;
211;SDS011;16228;48.800;9.002;2023-02-28T04:27:34;8.47;;;7.70;;
211;SDS011;16228;48.800;9.002;2023-02-28T04:30:01;9.23;;;7.53;;
211;SDS011;16228;48.800;9.002;2023-02-28T04:32:29;14.67;;;6.67;;
211;SDS011;16228;48.800;9.002;2023-02-28T04:34:56;9.63;;;8.63;;
211;SDS011;16228;48.800;9.002;2023-02-28T04:37:23;13.00;;;11.70;;
211;SDS011;16228;48.800;9.002;2023-02-28T04:39:53;8.00;;;7.20;;
211;SDS011;16228;48.800;9.002;2023-02-28T04:42:22;8.13;;;7.17;;
211;SDS011;16228;48.800;9.002;2023-02-28T04:44:49;8.37;;;7.63;;
211;SDS011;16228;48.800;9.002;2023-02-28T04:47:16;10.23;;;9.37;;
211;SDS011;16228;48.800;9.002;2023-02-28T04:49:44;12.20;;;11.00;;
211;SDS011;16228;48.800;9.002;2023-02-28T04:52:11;7.50;;;6.80;;
211;SDS011;16228;48.800;9.002;2023-02-28T04:54:38;7.57;;;6.90;;
211;SDS011;16228;48.800;9.002;2023-02-28T04:57:05;7.80;;;7.13;;
211;SDS011;16228;48.800;9.002;2023-02-28T04:59:34;17.07;;;15.77;;
211;SDS011;16228;48.800;9.002;2023-02-28T05:02:01;7.73;;;7.00;;
211;SDS011;16228;48.800;9.002;2023-02-28T05:04:32;7.40;;;6.67;;
211;SDS011;16228;48.800;9.002;2023-02-28T05:06:59;7.10;;;6.43;;
211;SDS011;16228;48.800;9.002;2023-02-28T05:09:27;15.03;;;13.97;;
211;SDS011;16228;48.800;9.002;2023-02-28T05:11:54;9.17;;;7.40;;
211;SDS011;16228;48.800;9.002;2023-02-28T05:14:21;8.97;;;8.17;;
211;SDS011;16228;48.800;9.002;2023-02-28T05:16:53;7.97;;;7.27;;
211;SDS011;16228;48.800;9.002;2023-02-28T05:19:21;7.43;;;6.27;;
211;SDS011;16228;48.800;9.002;2023-02-28T05:21:49;6.90;;;6.20;;
211;SDS011;16228;48.800;9.002;2023-02-28T05:24:18;7.20;;;6.50;;
211;SDS011;16228;48.800;9.002;2023-02-28T05:26:48;11.17;;;10.27;;
211;SDS011;16228;48.800;9.002;2023-02-28T05:29:18;10.67;;;9.77;;
211;SDS011;16228;48.800;9.002;2023-02-28T05:31:45;7.90;;;7.20;;
211;SDS011;16228;48.800;9.002;2023-02-28T05:34:14;8.20;;;6.97;;
211;SDS011;16228;48.800;9.002;2023-02-28T05:36:41;7.90;;;7.07;;
211;SDS011;16228;48.800;9.002;2023-02-28T05:39:09;8.23;;;7.47;;
211;SDS011;16228;48.800;9.002;2023-02-28T05:41:38;7.53;;;6.80;;
211;SDS011;16228;48.800;9.002;2023-02-28T05:44:06;9.50;;;8.30;;
211;SDS011;16228;48.800;9.002;2023-02-28T05:46:33;7.43;;;6.80;;
211;SDS011;16228;48.800;9.002;2023-02-28T05:49:01;7.90;;;6.60;;
211;SDS011;16228;48.800;9.002;2023-02-28T05:51:30;8.37;;;6.33;;
211;SDS011;16228;48.800;9.002;2023-02-28T05:54:00;8.13;;;7.33;;
211;SDS011;16228;48.800;9.002;2023-02-28T05:56:28;8.00;;;6.93;;
211;SDS011;16228;48.800;9.002;2023-02-28T05:58:56;7.67;;;6.97;;
211;SDS011;16228;48.800;9.002;2023-02-28T06:01:24;8.87;;;7.73;;
211;SDS011;16228;48.800;9.002;2023-02-28T06:03:58;8.07;;;7.27;;
211;SDS011;16228;48.800;9.002;2023-02-28T06:06:25;11.03;;;10.03;;
211;SDS011;16228;48.800;9.002;2023-02-28T06:08:54;8.67;;;7.60;;
211;SDS011;16228;48.800;9.002;2023-02-28T06:11:21;9.10;;;8.20;;
211;SDS011;16228;48.800;9.002;2023-02-28T06:13:53;9.83;;;8.83;;
211;SDS011;16228;48.800;9.002;2023-02-28T06:16:20;7.60;;;6.90;;
211;SDS011;16228;48.800;9.002;2023-02-28T06:18:48;10.43;;;7.23;;
211;SDS011;16228;48.800;9.002;2023-02-28T06:21:15;8.03;;;7.27;;
211;SDS011;16228;48.800;9.002;2023-02-28T06:23:42;8.40;;;7.70;;
211;SDS011;16228;48.800;9.002;2023-02-28T06:26:10;10.17;;;9.07;;
211;SDS011;16228;48.800;9.002;2023-02-28T06:28:38;8.87;;;7.20;;
211;SDS011;16228;48.800;9.002;2023-02-28T06:31:06;9.27;;;8.37;;
211;SDS011;16228;48.800;9.002;2023-02-28T06:33:34;10.37;;;8.60;;
211;SDS011;16228;48.800;9.002;2023-02-28T06:36:01;9.87;;;8.93;;
211;SDS011;16228;48.800;9.002;2023-02-28T06:38:28;9.17;;;8.13;;
211;SDS011;16228;48.800;9.002;2023-02-28T06:40:56;17.37;;;15.83;;
211;SDS011;16228;48.800;9.002;2023-02-28T06:43:26;16.30;;;14.80;;
211;SDS011;16228;48.800;9.002;2023-02-28T06:45:55;10.97;;;9.63;;
211;SDS011;16228;48.800;9.002;2023-02-28T06:48:23;10.27;;;8.10;;
211;SDS011;16228;48.800;9.002;2023-02-28T06:50:52;11.50;;;8.63;;
211;SDS011;16228;48.800;9.002;2023-02-28T06:53:27;9.57;;;7.53;;
211;SDS011;16228;48.800;9.002;2023-02-28T06:55:54;7.67;;;6.83;;
211;SDS011;16228;48.800;9.002;2023-02-28T06:58:21;16.27;;;15.07;;
211;SDS011;16228;48.800;9.002;2023-02-28T07:00:51;10.07;;;7.47;;
211;SDS011;16228;48.800;9.002;2023-02-28T07:03:19;9.60;;;8.47;;
211;SDS011;16228;48.800;9.002;2023-02-28T07:05:46;7.70;;;7.03;;
211;SDS011;16228;48.800;9.002;2023-02-28T07:08:13;8.13;;;7.33;;
211;SDS011;16228;48.800;9.002;2023-02-28T07:10:41;9.23;;;8.33;;
211;SDS011;16228;48.800;9.002;2023-02-28T07:13:08;9.60;;;8.77;;
211;SDS011;16228;48.800;9.002;2023-02-28T07:15:36;8.07;;;7.33;;
211;SDS011;16228;48.800;9.002;2023-02-28T07:18:05;10.20;;;9.23;;
211;SDS011;16228;48.800;9.002;2023-02-28T07:20:32;8.50;;;7.60;;
211;SDS011;16228;48.800;9.002;2023-02-28T07:22:59;10.83;;;8.60;;
211;SDS011;16228;48.800;9.002;2023-02-28T07:25:27;11.17;;;8.20;;
211;SDS011;16228;48.800;9.002;2023-02-28T07:27:55;10.63;;;8.43;;
211;SDS011;16228;48.800;9.002;2023-02-28T07:30:24;9.30;;;7.53;;
211;SDS011;16228;48.800;9.002;2023-02-28T07:32:51;9.73;;;7.60;;
211;SDS011;16228;48.800;9.002;2023-02-28T07:35:21;10.40;;;8.63;;
211;SDS011;16228;48.800;9.002;2023-02-28T07:37:48;8.50;;;6.97;;
211;SDS011;16228;48.800;9.002;2023-02-28T07:40:16;10.10;;;7.63;;
211;SDS011;16228;48.800;9.002;2023-02-28T07:42:43;7.57;;;6.87;;
211;SDS011;16228;48.800;9.002;2023-02-28T07:45:11;8.30;;;7.27;;
211;SDS011;16228;48.800;9.002;2023-02-28T07:47:38;11.43;;;8.87;;
211;SDS011;16228;48.800;9.002;2023-02-28T07:50:06;8.23;;;7.40;;
211;SDS011;16228;48.800;9.002;2023-02-28T07:52:37;10.03;;;8.13;;
211;SDS011;16228;48.800;9.002;2023-02-28T07:55:05;9.33;;;7.20;;
211;SDS011;16228;48.800;9.002;2023-02-28T07:57:34;9.03;;;7.40;;
211;SDS011;16228;48.800;9.002;2023-02-28T08:00:02;9.77;;;7.53;;
211;SDS011;16228;48.800;9.002;2023-02-28T08:02:29;8.30;;;7.13;;
211;SDS011;16228;48.800;9.002;2023-02-28T08:04:57;9.80;;;8.80;;
211;SDS011;16228;48.800;9.002;2023-02-28T08:07:24;10.03;;;8.27;;
211;SDS011;16228;48.800;9.002;2023-02-28T08:09:53;9.63;;;7.57;;
211;SDS011;16228;48.800;9.002;2023-02-28T08:12:21;9.10;;;7.43;;
211;SDS011;16228;48.800;9.002;2023-02-28T08:14:48;9.53;;;7.73;;
211;SDS011;16228;48.800;9.002;2023-02-28T08:17:15;12.07;;;8.30;;
211;SDS011;16228;48.800;9.002;2023-02-28T08:19:44;10.57;;;7.60;;
211;SDS011;16228;48.800;9.002;2023-02-28T08:22:12;8.67;;;7.47;;
211;SDS011;16228;48.800;9.002;2023-02-28T08:24:40;10.13;;;8.00;;
211;SDS011;16228;48.800;9.002;2023-02-28T08:27:09;8.93;;;7.03;;
211;SDS011;16228;48.800;9.002;2023-02-28T08:29:37;9.30;;;8.03;;
211;SDS011;16228;48.800;9.002;2023-02-28T08:32:04;9.50;;;8.13;;
211;SDS011;16228;48.800;9.002;2023-02-28T08:34:31;8.40;;;7.50;;
211;SDS011;16228;48.800;9.002;2023-02-28T08:36:59;12.67;;;8.43;;
211;SDS011;16228;48.800;9.002;2023-02-28T08:39:26;14.33;;;7.67;;
211;SDS011;16228;48.800;9.002;2023-02-28T08:41:53;9.97;;;8.00;;
211;SDS011;16228;48.800;9.002;2023-02-28T08:44:22;12.03;;;8.27;;
211;SDS011;16228;48.800;9.002;2023-02-28T08:46:49;9.57;;;7.80;;
211;SDS011;16228;48.800;9.002;2023-02-28T08:49:16;10.70;;;8.50;;
211;SDS011;16228;48.800;9.002;2023-02-28T08:51:43;11.53;;;7.90;;
211;SDS011;16228;48.800;9.002;2023-02-28T08:54:11;9.90;;;7.83;;
211;SDS011;16228;48.800;9.002;2023-02-28T08:56:39;9.10;;;7.63;;
211;SDS011;16228;48.800;9.002;2023-02-28T08:59:08;9.87;;;7.40;;
211;SDS011;16228;48.800;9.002;2023-02-28T09:01:37;9.73;;;7.97;;
211;SDS011;16228;48.800;9.002;2023-02-28T09:04:06;13.03;;;8.70;;
211;SDS011;16228;48.800;9.002;2023-02-28T09:06:36;10.37;;;7.80;;
211;SDS011;16228;48.800;9.002;2023-02-28T09:09:03;10.53;;;9.33;;
211;SDS011;16228;48.800;9.002;2023-02-28T09:11:32;10.47;;;8.23;;
211;SDS011;16228;48.800;9.002;2023-02-28T09:14:00;12.50;;;9.07;;
211;SDS011;16228;48.800;9.002;2023-02-28T09:16:28;10.97;;;8.83;;
211;SDS011;16228;48.800;9.002;2023-02-28T09:18:58;11.17;;;8.43;;
211;SDS011;16228;48.800;9.002;2023-02-28T09:21:26;9.53;;;8.53;;
211;SDS011;16228;48.800;9.002;2023-02-28T09:23:53;10.70;;;8.60;;
211;SDS011;16228;48.800;9.002;2023-02-28T09:26:22;10.60;;;8.50;;
211;SDS011;16228;48.800;9.002;2023-02-28T09:28:50;9.33;;;8.07;;
211;SDS011;16228;48.800;9.002;2023-02-28T09:31:19;10.13;;;7.80;;
211;SDS011;16228;48.800;9.002;2023-02-28T09:33:48;12.20;;;8.60;;
211;SDS011;16228;48.800;9.002;2023-02-28T09:36:17;13.33;;;8.23;;
211;SDS011;16228;48.800;9.002;2023-02-28T09:38:45;9.97;;;8.53;;
211;SDS011;16228;48.800;9.002;2023-02-28T09:41:13;9.07;;;7.80;;
211;SDS011;16228;48.800;9.002;2023-02-28T09:43:43;10.63;;;8.50;;
211;SDS011;16228;48.800;9.002;2023-02-28T09:46:16;10.13;;;9.03;;
211;SDS011;16228;48.800;9.002;2023-02-28T09:48:51;11.50;;;8.50;;
211;SDS011;16228;48.800;9.002;2023-02-28T09:51:30;11.13;;;9.00;;
211;SDS011;16228;48.800;9.002;2023-02-28T09:54:04;10.73;;;9.03;;
211;SDS011;16228;48.800;9.002;2023-02-28T09:56:34;9.37;;;8.43;;
211;SDS011;16228;48.800;9.002;2023-02-28T09:59:05;9.93;;;8.70;;
211;SDS011;16228;48.800;9.002;2023-02-28T10:01:43;11.40;;;8.23;;
211;SDS011;16228;48.800;9.002;2023-02-28T10:04:24;12.17;;;9.07;;
211;SDS011;16228;48.800;9.002;2023-02-28T10:07:18;9.40;;;8.23;;
211;SDS011;16228;48.800;9.002;2023-02-28T10:10:24;10.30;;;8.43;;
211;SDS011;16228;48.800;9.002;2023-02-28T10:13:16;10.20;;;8.13;;
211;SDS011;16228;48.800;9.002;2023-02-28T10:15:51;11.17;;;9.27;;
211;SDS011;16228;48.800;9.002;2023-02-28T10:18:23;10.57;;;8.73;;
211;SDS011;16228;48.800;9.002;2023-02-28T10:20:53;10.37;;;8.60;;
211;SDS011;16228;48.800;9.002;2023-02-28T10:23:25;12.77;;;8.57;;
211;SDS011;16228;48.800;9.002;2023-02-28T10:25:56;10.63;;;9.53;;
211;SDS011;16228;48.800;9.002;2023-02-28T10:28:25;11.07;;;8.83;;
211;SDS011;16228;48.800;9.002;2023-02-28T10:30:56;11.60;;;9.13;;
211;SDS011;16228;48.800;9.002;2023-02-28T10:33:25;9.43;;;7.90;;
211;SDS011;16228;48.800;9.002;2023-02-28T10:35:55;10.60;;;8.20;;
211;SDS011;16228;48.800;9.002;2023-02-28T10:38:27;10.53;;;8.60;;
211;SDS011;16228;48.800;9.002;2023-02-28T10:41:05;13.53;;;8.60;;
211;SDS011;16228;48.800;9.002;2023-02-28T10:43:36;9.60;;;7.97;;
211;SDS011;16228;48.800;9.002;2023-02-28T10:46:11;9.63;;;8.63;;
211;SDS011;16228;48.800;9.002;2023-02-28T10:48:57;9.43;;;8.17;;
211;SDS011;16228;48.800;9.002;2023-02-28T10:51:34;10.77;;;8.60;;
211;SDS011;16228;48.800;9.002;2023-02-28T10:54:05;10.63;;;8.30;;
211;SDS011;16228;48.800;9.002;2023-02-28T10:56:40;9.20;;;8.20;;
211;SDS011;16228;48.800;9.002;2023-02-28T10:59:22;10.37;;;8.50;;
211;SDS011;16228;48.800;9.002;2023-02-28T11:01:54;9.17;;;7.77;;
211;SDS011;16228;48.800;9.002;2023-02-28T11:04:31;9.00;;;8.10;;
211;SDS011;16228;48.800;9.002;2023-02-28T11:07:02;10.07;;;7.93;;
211;SDS011;16228;48.800;9.002;2023-02-28T11:09:33;10.03;;;8.57;;
211;SDS011;16228;48.800;9.002;2023-02-28T11:12:04;9.07;;;8.07;;
211;SDS011;16228;48.800;9.002;2023-02-28T11:14:36;9.77;;;7.77;;
211;SDS011;16228;48.800;9.002;2023-02-28T11:17:14;8.93;;;7.67;;
211;SDS011;16228;48.800;9.002;2023-02-28T11:19:47;7.80;;;6.70;;
211;SDS011;16228;48.800;9.002;2023-02-28T11:22:17;8.70;;;7.70;;
211;SDS011;16228;48.800;9.002;2023-02-28T11:24:50;8.67;;;6.70;;
211;SDS011;16228;48.800;9.002;2023-02-28T11:27:45;7.97;;;7.17;;
211;SDS011;16228;48.800;9.002;2023-02-28T11:30:28;7.87;;;7.07;;
211;SDS011;16228;48.800;9.002;2023-02-28T11:32:58;10.60;;;6.77;;
211;SDS011;16228;48.800;9.002;2023-02-28T11:35:27;9.73;;;7.50;;
211;SDS011;16228;48.800;9.002;2023-02-28T11:37:57;8.97;;;7.30;;
211;SDS011;16228;48.800;9.002;2023-02-28T11:40:30;8.67;;;7.00;;
211;SDS011;16228;48.800;9.002;2023-02-28T11:43:13;7.73;;;6.93;;
211;SDS011;16228;48.800;9.002;2023-02-28T11:45:54;9.50;;;7.93;;
211;SDS011;16228;48.800;9.002;2023-02-28T11:48:34;7.67;;;6.87;;
211;SDS011;16228;48.800;9.002;2023-02-28T11:51:14;9.33;;;7.50;;
211;SDS011;16228;48.800;9.002;2023-02-28T11:53:50;9.70;;;7.83;;
211;SDS011;16228;48.800;9.002;2023-02-28T11:56:28;8.83;;;7.33;;
211;SDS011;16228;48.800;9.002;2023-02-28T11:59:01;9.00;;;8.03;;
211;SDS011;16228;48.800;9.002;2023-02-28T12:01:52;9.33;;;7.63;;
211;SDS011;16228;48.800;9.002;2023-02-28T12:04:47;9.57;;;8.40;;
211;SDS011;16228;48.800;9.002;2023-02-28T12:07:22;8.07;;;7.30;;
211;SDS011;16228;48.800;9.002;2023-02-28T12:09:59;8.57;;;7.67;;
211;SDS011;16228;48.800;9.002;2023-02-28T12:12:41;8.63;;;7.73;;
211;SDS011;16228;48.800;9.002;2023-02-28T12:15:20;9.17;;;7.60;;
211;SDS011;16228;48.800;9.002;2023-02-28T12:18:00;8.57;;;7.67;;
211;SDS011;16228;48.800;9.002;2023-02-28T12:20:41;7.83;;;6.63;;
211;SDS011;16228;48.800;9.002;2023-02-28T12:23:20;8.00;;;7.00;;
211;SDS011;16228;48.800;9.002;2023-02-28T12:26:00;10.23;;;7.50;;
211;SDS011;16228;48.800;9.002;2023-02-28T12:28:37;7.57;;;6.10;;
211;SDS011;16228;48.800;9.002;2023-02-28T12:31:09;7.70;;;6.87;;
211;SDS011;16228;48.800;9.002;2023-02-28T12:33:42;9.57;;;6.93;;
211;SDS011;16228;48.800;9.002;2023-02-28T12:36:14;9.10;;;8.03;;
211;SDS011;16228;48.800;9.002;2023-02-28T12:38:47;7.23;;;6.53;;
211;SDS011;16228;48.800;9.002;2023-02-28T12:41:18;7.07;;;6.37;;
211;SDS011;16228;48.800;9.002;2023-02-28T12:43:51;7.67;;;6.97;;
211;SDS011;16228;48.800;9.002;2023-02-28T12:46:25;7.77;;;6.90;;
211;SDS011;16228;48.800;9.002;2023-02-28T12:48:56;8.50;;;7.47;;
211;SDS011;16228;48.800;9.002;2023-02-28T12:51:25;9.23;;;7.50;;
211;SDS011;16228;48.800;9.002;2023-02-28T12:53:56;6.80;;;6.10;;
211;SDS011;16228;48.800;9.002;2023-02-28T12:56:31;7.33;;;6.63;;
211;SDS011;16228;48.800;9.002;2023-02-28T12:59:05;7.73;;;6.73;;
211;SDS011;16228;48.800;9.002;2023-02-28T13:08:11;8.63;;;6.50;;
211;SDS011;16228;48.800;9.002;2023-02-28T13:11:05;7.83;;;7.03;;
211;SDS011;16228;48.800;9.002;2023-02-28T13:13:33;9.43;;;6.20;;
211;SDS011;16228;48.800;9.002;2023-02-28T13:16:06;8.37;;;6.50;;
211;SDS011;16228;48.800;9.002;2023-02-28T13:18:35;7.80;;;6.30;;
211;SDS011;16228;48.800;9.002;2023-02-28T13:21:05;8.27;;;6.53;;
211;SDS011;16228;48.800;9.002;2023-02-28T13:23:38;9.30;;;7.17;;
211;SDS011;16228;48.800;9.002;2023-02-28T13:26:07;7.93;;;7.13;;
211;SDS011;16228;48.800;9.002;2023-02-28T13:38:01;8.57;;;6.63;;
211;SDS011;16228;48.800;9.002;2023-02-28T13:40:41;7.63;;;6.20;;
211;SDS011;16228;48.800;9.002;2023-02-28T13:43:09;8.03;;;7.20;;
211;SDS011;16228;48.800;9.002;2023-02-28T13:45:36;7.67;;;5.90;;
211;SDS011;16228;48.800;9.002;2023-02-28T13:48:12;7.30;;;6.63;;
211;SDS011;16228;48.800;9.002;2023-02-28T13:50:44;6.93;;;6.23;;
211;SDS011;16228;48.800;9.002;2023-02-28T13:56:07;7.30;;;6.60;;
211;SDS011;16228;48.800;9.002;2023-02-28T13:58:49;7.70;;;6.83;;
211;SDS011;16228;48.800;9.002;2023-02-28T14:01:27;9.93;;;7.47;;
211;SDS011;16228;48.800;9.002;2023-02-28T14:07:10;8.47;;;7.07;;
211;SDS011;16228;48.800;9.002;2023-02-28T14:09:46;6.83;;;6.13;;
211;SDS011;16228;48.800;9.002;2023-02-28T14:18:29;7.77;;;6.50;;
211;SDS011;16228;48.800;9.002;2023-02-28T14:20:58;8.10;;;6.27;;
211;SDS011;16228;48.800;9.002;2023-02-28T14:23:36;7.80;;;6.73;;
211;SDS011;16228;48.800;9.002;2023-02-28T14:26:31;8.67;;;7.40;;
211;SDS011;16228;48.800;9.002;2023-02-28T14:29:19;8.30;;;7.27;;
211;SDS011;16228;48.800;9.002;2023-02-28T14:32:01;8.50;;;7.43;;
211;SDS011;16228;48.800;9.002;2023-02-28T14:34:36;7.93;;;7.13;;
211;SDS011;16228;48.800;9.002;2023-02-28T14:37:10;8.47;;;7.53;;
211;SDS011;16228;48.800;9.002;2023-02-28T14:39:42;7.50;;;6.60;;
211;SDS011;16228;48.800;9.002;2023-02-28T14:42:29;7.70;;;6.60;;
211;SDS011;16228;48.800;9.002;2023-02-28T14:44:59;9.20;;;7.77;;
211;SDS011;16228;48.800;9.002;2023-02-28T14:47:27;8.37;;;7.33;;
211;SDS011;16228;48.800;9.002;2023-02-28T14:49:57;8.90;;;8.00;;
211;SDS011;16228;48.800;9.002;2023-02-28T14:52:25;11.57;;;8.50;;
211;SDS011;16228;48.800;9.002;2023-02-28T14:54:55;15.93;;;8.07;;
211;SDS011;16228;48.800;9.002;2023-02-28T14:57:26;9.03;;;7.83;;
211;SDS011;16228;48.800;9.002;2023-02-28T14:59:59;10.57;;;7.60;;
211;SDS011;16228;48.800;9.002;2023-02-28T15:02:30;11.00;;;7.87;;
211;SDS011;16228;48.800;9.002;2023-02-28T15:05:00;9.37;;;7.50;;
211;SDS011;16228;48.800;9.002;2023-02-28T15:07:36;9.70;;;7.67;;
211;SDS011;16228;48.800;9.002;2023-02-28T15:10:16;8.83;;;7.40;;
211;SDS011;16228;48.800;9.002;2023-02-28T15:12:47;11.60;;;8.83;;
211;SDS011;16228;48.800;9.002;2023-02-28T15:15:20;9.80;;;8.10;;
211;SDS011;16228;48.800;9.002;2023-02-28T15:17:49;10.10;;;8.67;;
211;SDS011;16228;48.800;9.002;2023-02-28T15:20:21;11.80;;;7.97;;
211;SDS011;16228;48.800;9.002;2023-02-28T15:22:49;11.53;;;8.40;;
211;SDS011;16228;48.800;9.002;2023-02-28T15:25:20;12.50;;;8.73;;
211;SDS011;16228;48.800;9.002;2023-02-28T15:27:49;8.50;;;7.70;;
211;SDS011;16228;48.800;9.002;2023-02-28T15:30:20;9.97;;;7.67;;
211;SDS011;16228;48.800;9.002;2023-02-28T15:33:03;9.83;;;8.07;;
211;SDS011;16228;48.800;9.002;2023-02-28T15:35:36;9.47;;;8.13;;
211;SDS011;16228;48.800;9.002;2023-02-28T15:38:12;9.93;;;8.63;;
211;SDS011;16228;48.800;9.002;2023-02-28T15:40:44;10.07;;;7.90;;
211;SDS011;16228;48.800;9.002;2023-02-28T15:43:23;10.17;;;8.50;;
211;SDS011;16228;48.800;9.002;2023-02-28T15:45:53;9.87;;;8.20;;
211;SDS011;16228;48.800;9.002;2023-02-28T15:48:24;9.77;;;8.07;;
211;SDS011;16228;48.800;9.002;2023-02-28T15:50:54;13.73;;;7.83;;
211;SDS011;16228;48.800;9.002;2023-02-28T15:53:24;9.13;;;7.87;;
211;SDS011;16228;48.800;9.002;2023-02-28T15:55:55;9.20;;;8.20;;
211;SDS011;16228;48.800;9.002;2023-02-28T15:58:26;8.17;;;7.30;;
211;SDS011;16228;48.800;9.002;2023-02-28T16:01:15;9.53;;;8.43;;
211;SDS011;16228;48.800;9.002;2023-02-28T16:03:46;10.17;;;8.40;;
211;SDS011;16228;48.800;9.002;2023-02-28T16:09:10;9.47;;;8.43;;
211;SDS011;16228;48.800;9.002;2023-02-28T16:11:41;10.30;;;8.20;;
211;SDS011;16228;48.800;9.002;2023-02-28T16:14:15;10.20;;;7.90;;
211;SDS011;16228;48.800;9.002;2023-02-28T16:16:45;9.50;;;7.83;;
211;SDS011;16228;48.800;9.002;2023-02-28T16:19:14;8.87;;;7.97;;
211;SDS011;16228;48.800;9.002;2023-02-28T16:21:43;10.40;;;8.50;;